Greenville Spartanburg International Airport
KGSP : rendu visible

Aérodrome :











RETROUVEZ-NOUS SUR...

 
LOGIN :

S'inscrire | Disclaimer

   EN    FR    IT 

 









Légende :    VFR   VFR Marginal   IFR   IFR Intensif   IFR Très Intensif
Visi : 
Plafond : 
>= 8 km
>= 3000ft
5 à 8 km
1000 à 3000 ft
1500m à 5 km
500 à 1000 ft
800 à 1500m
200 à 500 ft
< 800m
< 200 ft
Symboles :   Orages  Brouillard  Fortes neiges  Fortes précipitations  Vent > 20 kt






- Altitude de l'aérodrome : 964 ft
- Code IATA : GSP


KGSP - Greenville Spartanburg International

DERNIER METAR :
  • 310253Z 01003KT 10SM BKN080 21/15 A3002 RMK AO2 SLP154 T02110150 51016

METARs EXPIRÉS :
  • 310153Z 01004KT 10SM BKN075 OVC095 24/14 A3001 RMK AO2 SLP150 T02390144
  • 310053Z 01004KT 10SM BKN075 OVC090 24/16 A2999 RMK AO2 SLP145 T02440156

TAF KGSP
Valide du 31 à 00h jusqu'au 01 à 00h UTC


302323Z 3100/3124 03006KT P6SM FEW060
FIR KZTL / Amérique du Nord



MET'MAP, la Météo Aéronautique d'un coup d'oeil ! - Copyright ORBIFLY Décembre 2007 - Disclaimer

ORBIFLY MET'MAP TEAM :

Programmation & Développement : Alexandra Zaïnal
Sur une idée originale de : Baudouin d'Aumeries
Assistance à la programmation : Marc-Olivier Méhu
Soutien technique & logistique : Manuel Goepfert

Contact : metmap@orbifly.com




SOURCES & CREDITS :

   NOAA       Earth
Advisory